sensor_id;sensor_type;location;lat;lon;timestamp;pressure;altitude;pressure_sealevel;temperature;humidity
62072;BME280;48031;48.542;13.232;2023-02-28T00:03:40;97991.81;;;4.32;45.29
62072;BME280;48031;48.542;13.232;2023-02-28T00:07:42;97992.53;;;4.12;45.63
62072;BME280;48031;48.542;13.232;2023-02-28T00:11:44;97982.13;;;4.03;45.49
62072;BME280;48031;48.542;13.232;2023-02-28T00:16:20;97978.88;;;4.89;45.45
62072;BME280;48031;48.542;13.232;2023-02-28T00:20:27;97976.72;;;4.72;45.15
62072;BME280;48031;48.542;13.232;2023-02-28T00:24:29;97984.13;;;4.22;45.32
62072;BME280;48031;48.542;13.232;2023-02-28T00:33:53;97973.72;;;3.85;46.33
62072;BME280;48031;48.542;13.232;2023-02-28T00:37:55;97963.41;;;3.82;47.02
62072;BME280;48031;48.542;13.232;2023-02-28T00:41:57;97965.84;;;4.04;46.42
62072;BME280;48031;48.542;13.232;2023-02-28T00:45:59;97963.03;;;3.91;46.29
62072;BME280;48031;48.542;13.232;2023-02-28T00:50:01;97960.97;;;4.21;46.17
62072;BME280;48031;48.542;13.232;2023-02-28T00:54:03;97960.84;;;3.73;47.79
62072;BME280;48031;48.542;13.232;2023-02-28T00:58:04;97962.25;;;3.97;47.58
62072;BME280;48031;48.542;13.232;2023-02-28T01:02:06;97947.50;;;4.14;46.20
62072;BME280;48031;48.542;13.232;2023-02-28T01:06:10;97954.81;;;3.65;47.00
62072;BME280;48031;48.542;13.232;2023-02-28T01:10:12;97949.72;;;4.04;46.34
62072;BME280;48031;48.542;13.232;2023-02-28T01:14:16;97938.50;;;4.35;46.17
62072;BME280;48031;48.542;13.232;2023-02-28T01:18:20;97939.78;;;4.39;46.42
62072;BME280;48031;48.542;13.232;2023-02-28T01:22:22;97922.28;;;3.81;46.82
62072;BME280;48031;48.542;13.232;2023-02-28T01:26:24;97930.78;;;3.85;47.37
62072;BME280;48031;48.542;13.232;2023-02-28T01:30:27;97933.38;;;3.99;47.40
62072;BME280;48031;48.542;13.232;2023-02-28T01:34:29;97939.97;;;3.69;47.10
62072;BME280;48031;48.542;13.232;2023-02-28T01:38:31;97931.19;;;3.82;47.81
62072;BME280;48031;48.542;13.232;2023-02-28T01:42:33;97924.97;;;3.81;46.61
62072;BME280;48031;48.542;13.232;2023-02-28T01:46:35;97924.72;;;4.04;46.93
62072;BME280;48031;48.542;13.232;2023-02-28T01:50:40;97929.66;;;4.00;47.71
62072;BME280;48031;48.542;13.232;2023-02-28T01:54:43;97930.97;;;4.11;45.75
62072;BME280;48031;48.542;13.232;2023-02-28T01:58:48;97912.94;;;4.52;46.78
62072;BME280;48031;48.542;13.232;2023-02-28T02:02:53;97914.94;;;4.31;46.79
62072;BME280;48031;48.542;13.232;2023-02-28T02:06:58;97921.84;;;4.05;46.99
62072;BME280;48031;48.542;13.232;2023-02-28T02:11:01;97920.81;;;4.06;47.20
62072;BME280;48031;48.542;13.232;2023-02-28T02:15:16;97908.81;;;4.50;45.79
62072;BME280;48031;48.542;13.232;2023-02-28T02:24:29;97902.59;;;4.43;46.80
62072;BME280;48031;48.542;13.232;2023-02-28T02:28:52;97906.47;;;5.08;44.87
62072;BME280;48031;48.542;13.232;2023-02-28T02:37:19;97916.56;;;4.25;47.12
62072;BME280;48031;48.542;13.232;2023-02-28T02:41:34;97914.22;;;4.56;46.23
62072;BME280;48031;48.542;13.232;2023-02-28T02:45:44;97909.66;;;3.47;48.46
62072;BME280;48031;48.542;13.232;2023-02-28T02:49:50;97902.59;;;4.43;46.98
62072;BME280;48031;48.542;13.232;2023-02-28T02:54:10;97914.50;;;4.27;47.09
62072;BME280;48031;48.542;13.232;2023-02-28T02:58:16;97913.09;;;3.97;47.17
62072;BME280;48031;48.542;13.232;2023-02-28T03:02:20;97917.72;;;4.09;47.66
62072;BME280;48031;48.542;13.232;2023-02-28T03:06:24;97916.38;;;3.92;46.95
62072;BME280;48031;48.542;13.232;2023-02-28T03:10:56;97913.59;;;4.54;46.46
62072;BME280;48031;48.542;13.232;2023-02-28T03:15:20;97908.00;;;4.63;46.76
62072;BME280;48031;48.542;13.232;2023-02-28T03:19:52;97909.75;;;4.83;45.43
62072;BME280;48031;48.542;13.232;2023-02-28T03:28:17;97906.38;;;4.14;46.46
62072;BME280;48031;48.542;13.232;2023-02-28T03:32:24;97911.63;;;4.35;46.87
62072;BME280;48031;48.542;13.232;2023-02-28T03:36:30;97911.19;;;3.84;46.29
62072;BME280;48031;48.542;13.232;2023-02-28T03:40:34;97910.69;;;3.74;47.57
62072;BME280;48031;48.542;13.232;2023-02-28T03:44:42;97908.22;;;3.79;47.18
62072;BME280;48031;48.542;13.232;2023-02-28T03:48:55;97895.44;;;4.15;45.98
62072;BME280;48031;48.542;13.232;2023-02-28T03:53:02;97899.28;;;4.47;45.86
62072;BME280;48031;48.542;13.232;2023-02-28T04:05:54;97893.38;;;4.72;44.62
62072;BME280;48031;48.542;13.232;2023-02-28T04:09:57;97899.31;;;3.72;45.49
62072;BME280;48031;48.542;13.232;2023-02-28T04:14:01;97903.19;;;3.97;45.93
62072;BME280;48031;48.542;13.232;2023-02-28T04:18:04;97905.94;;;3.76;45.98
62072;BME280;48031;48.542;13.232;2023-02-28T04:22:07;97905.72;;;4.05;46.03
62072;BME280;48031;48.542;13.232;2023-02-28T04:26:10;97899.28;;;3.38;46.51
62072;BME280;48031;48.542;13.232;2023-02-28T04:30:12;97902.38;;;3.41;46.49
62072;BME280;48031;48.542;13.232;2023-02-28T04:34:15;97906.53;;;3.71;45.84
62072;BME280;48031;48.542;13.232;2023-02-28T04:38:17;97901.84;;;3.80;46.28
62072;BME280;48031;48.542;13.232;2023-02-28T04:42:19;97914.00;;;4.10;45.17
62072;BME280;48031;48.542;13.232;2023-02-28T04:46:21;97906.19;;;3.81;45.63
62072;BME280;48031;48.542;13.232;2023-02-28T04:50:23;97915.50;;;4.19;44.98
62072;BME280;48031;48.542;13.232;2023-02-28T04:54:26;97919.66;;;3.88;45.43
62072;BME280;48031;48.542;13.232;2023-02-28T04:58:28;97915.44;;;4.13;44.60
62072;BME280;48031;48.542;13.232;2023-02-28T05:02:34;97913.75;;;4.40;44.45
62072;BME280;48031;48.542;13.232;2023-02-28T05:06:36;97918.28;;;3.98;45.20
62072;BME280;48031;48.542;13.232;2023-02-28T05:10:38;97921.34;;;3.61;45.55
62072;BME280;48031;48.542;13.232;2023-02-28T05:14:41;97921.94;;;3.35;46.03
62072;BME280;48031;48.542;13.232;2023-02-28T05:18:43;97915.50;;;3.85;45.27
62072;BME280;48031;48.542;13.232;2023-02-28T05:22:46;97916.63;;;3.42;46.07
62072;BME280;48031;48.542;13.232;2023-02-28T05:26:50;97916.75;;;3.83;46.04
62072;BME280;48031;48.542;13.232;2023-02-28T05:30:53;97910.72;;;3.81;44.73
62072;BME280;48031;48.542;13.232;2023-02-28T05:34:56;97926.66;;;3.82;44.40
62072;BME280;48031;48.542;13.232;2023-02-28T05:38:58;97917.75;;;3.82;45.06
62072;BME280;48031;48.542;13.232;2023-02-28T05:43:00;97929.91;;;3.50;46.25
62072;BME280;48031;48.542;13.232;2023-02-28T05:47:02;97932.72;;;3.97;44.71
62072;BME280;48031;48.542;13.232;2023-02-28T05:51:06;97930.09;;;4.04;44.66
62072;BME280;48031;48.542;13.232;2023-02-28T05:55:08;97938.28;;;3.61;44.65
62072;BME280;48031;48.542;13.232;2023-02-28T05:59:12;97943.38;;;4.18;44.19
62072;BME280;48031;48.542;13.232;2023-02-28T06:03:14;97943.03;;;3.94;44.23
62072;BME280;48031;48.542;13.232;2023-02-28T06:07:17;97951.22;;;3.58;45.17
62072;BME280;48031;48.542;13.232;2023-02-28T06:11:19;97951.00;;;3.53;45.37
62072;BME280;48031;48.542;13.232;2023-02-28T06:15:22;97951.00;;;3.53;45.38
62072;BME280;48031;48.542;13.232;2023-02-28T06:19:24;97959.22;;;3.79;44.37
62072;BME280;48031;48.542;13.232;2023-02-28T06:23:29;97958.25;;;3.87;44.84
62072;BME280;48031;48.542;13.232;2023-02-28T06:27:32;97966.22;;;3.73;45.28
62072;BME280;48031;48.542;13.232;2023-02-28T06:31:34;97970.03;;;3.86;44.55
62072;BME280;48031;48.542;13.232;2023-02-28T06:35:37;97975.84;;;3.89;44.98
62072;BME280;48031;48.542;13.232;2023-02-28T06:39:40;97975.56;;;4.05;43.78
62072;BME280;48031;48.542;13.232;2023-02-28T06:43:42;97985.47;;;4.05;43.89
62072;BME280;48031;48.542;13.232;2023-02-28T06:47:45;97991.84;;;4.04;44.41
62072;BME280;48031;48.542;13.232;2023-02-28T06:51:46;97991.44;;;3.79;45.14
62072;BME280;48031;48.542;13.232;2023-02-28T06:55:49;97997.66;;;4.42;42.83
62072;BME280;48031;48.542;13.232;2023-02-28T06:59:51;98004.59;;;4.23;43.43
62072;BME280;48031;48.542;13.232;2023-02-28T07:03:54;97994.13;;;4.07;43.88
62072;BME280;48031;48.542;13.232;2023-02-28T07:07:56;98010.50;;;4.46;43.87
62072;BME280;48031;48.542;13.232;2023-02-28T07:11:59;97997.44;;;4.78;42.55
62072;BME280;48031;48.542;13.232;2023-02-28T07:16:06;98004.38;;;4.59;43.58
62072;BME280;48031;48.542;13.232;2023-02-28T07:20:11;97997.06;;;4.46;43.35
62072;BME280;48031;48.542;13.232;2023-02-28T07:24:13;98005.97;;;4.94;42.19
62072;BME280;48031;48.542;13.232;2023-02-28T07:28:17;98007.63;;;4.48;43.18
62072;BME280;48031;48.542;13.232;2023-02-28T07:32:20;98003.19;;;4.75;42.57
62072;BME280;48031;48.542;13.232;2023-02-28T07:36:22;98004.97;;;4.95;41.97
62072;BME280;48031;48.542;13.232;2023-02-28T07:40:25;98001.56;;;5.54;41.40
62072;BME280;48031;48.542;13.232;2023-02-28T07:44:27;98001.63;;;4.93;42.54
62072;BME280;48031;48.542;13.232;2023-02-28T07:48:30;98002.91;;;5.04;41.23
62072;BME280;48031;48.542;13.232;2023-02-28T07:52:31;98003.97;;;5.16;41.00
62072;BME280;48031;48.542;13.232;2023-02-28T07:56:34;98008.53;;;4.62;42.79
62072;BME280;48031;48.542;13.232;2023-02-28T08:00:36;98006.66;;;5.16;41.54
62072;BME280;48031;48.542;13.232;2023-02-28T08:04:38;98000.88;;;5.19;42.17
62072;BME280;48031;48.542;13.232;2023-02-28T08:08:40;98003.66;;;5.78;40.81
62072;BME280;48031;48.542;13.232;2023-02-28T08:12:44;98005.72;;;5.63;40.65
62072;BME280;48031;48.542;13.232;2023-02-28T08:16:46;97999.91;;;5.60;41.40
62072;BME280;48031;48.542;13.232;2023-02-28T08:20:48;97997.00;;;5.74;41.52
62072;BME280;48031;48.542;13.232;2023-02-28T08:24:50;98000.59;;;6.01;40.50
62072;BME280;48031;48.542;13.232;2023-02-28T08:28:52;97997.41;;;6.31;42.04
62072;BME280;48031;48.542;13.232;2023-02-28T08:32:57;97997.47;;;6.88;40.01
62072;BME280;48031;48.542;13.232;2023-02-28T08:37:00;98000.09;;;6.50;39.44
62072;BME280;48031;48.542;13.232;2023-02-28T08:41:08;98000.44;;;7.18;39.59
62072;BME280;48031;48.542;13.232;2023-02-28T08:45:12;98000.94;;;7.02;39.49
62072;BME280;48031;48.542;13.232;2023-02-28T08:49:15;98010.38;;;7.24;37.67
62072;BME280;48031;48.542;13.232;2023-02-28T08:53:17;98005.59;;;7.89;39.18
62072;BME280;48031;48.542;13.232;2023-02-28T08:57:19;98010.16;;;8.38;38.43
62072;BME280;48031;48.542;13.232;2023-02-28T09:01:26;97995.66;;;9.24;35.93
62072;BME280;48031;48.542;13.232;2023-02-28T09:05:30;98011.06;;;8.25;35.78
62072;BME280;48031;48.542;13.232;2023-02-28T09:09:32;98011.31;;;8.49;37.68
62072;BME280;48031;48.542;13.232;2023-02-28T09:13:34;98007.09;;;9.37;35.95
62072;BME280;48031;48.542;13.232;2023-02-28T09:17:36;98010.00;;;9.54;36.06
62072;BME280;48031;48.542;13.232;2023-02-28T09:21:39;98013.44;;;9.61;34.09
62072;BME280;48031;48.542;13.232;2023-02-28T09:25:52;98015.78;;;11.04;33.16
62072;BME280;48031;48.542;13.232;2023-02-28T09:29:55;98013.81;;;10.76;33.34
62072;BME280;48031;48.542;13.232;2023-02-28T09:33:58;98013.25;;;10.62;32.85
62072;BME280;48031;48.542;13.232;2023-02-28T09:38:00;98022.50;;;11.13;34.67
62072;BME280;48031;48.542;13.232;2023-02-28T09:42:04;98023.66;;;11.57;34.73
62072;BME280;48031;48.542;13.232;2023-02-28T09:50:19;98025.97;;;11.93;31.09
62072;BME280;48031;48.542;13.232;2023-02-28T09:54:28;98030.34;;;13.00;31.19
62072;BME280;48031;48.542;13.232;2023-02-28T10:11:22;98044.53;;;13.62;30.19
62072;BME280;48031;48.542;13.232;2023-02-28T10:15:29;98050.66;;;14.01;29.45
62072;BME280;48031;48.542;13.232;2023-02-28T10:23:36;98042.66;;;14.21;28.19
62072;BME280;48031;48.542;13.232;2023-02-28T10:27:38;98040.09;;;15.15;27.30
62072;BME280;48031;48.542;13.232;2023-02-28T10:31:40;98046.69;;;15.19;26.81
62072;BME280;48031;48.542;13.232;2023-02-28T10:35:42;98045.25;;;15.07;27.53
62072;BME280;48031;48.542;13.232;2023-02-28T10:39:45;98039.91;;;16.19;27.13
62072;BME280;48031;48.542;13.232;2023-02-28T10:43:48;98048.25;;;15.57;27.51
62072;BME280;48031;48.542;13.232;2023-02-28T10:51:58;98051.69;;;16.45;25.86
62072;BME280;48031;48.542;13.232;2023-02-28T10:56:16;98044.88;;;16.68;25.52
62072;BME280;48031;48.542;13.232;2023-02-28T11:00:22;98030.91;;;16.59;26.22
62072;BME280;48031;48.542;13.232;2023-02-28T11:08:30;98027.00;;;18.58;23.33
62072;BME280;48031;48.542;13.232;2023-02-28T11:12:36;98023.66;;;20.60;21.50
62072;BME280;48031;48.542;13.232;2023-02-28T11:16:53;98026.94;;;18.63;23.19
62072;BME280;48031;48.542;13.232;2023-02-28T11:20:57;98033.13;;;19.32;22.70
62072;BME280;48031;48.542;13.232;2023-02-28T11:25:03;98026.81;;;19.31;21.72
62072;BME280;48031;48.542;13.232;2023-02-28T11:29:24;98016.31;;;20.37;20.77
62072;BME280;48031;48.542;13.232;2023-02-28T11:37:32;98019.19;;;19.89;21.92
62072;BME280;48031;48.542;13.232;2023-02-28T11:50:48;98004.88;;;23.02;18.19
62072;BME280;48031;48.542;13.232;2023-02-28T12:08:08;97999.38;;;24.07;16.34
62072;BME280;48031;48.542;13.232;2023-02-28T12:16:32;97993.09;;;30.77;11.67
62072;BME280;48031;48.542;13.232;2023-02-28T12:29:19;97987.19;;;32.19;9.85
62072;BME280;48031;48.542;13.232;2023-02-28T12:33:31;97976.38;;;31.46;10.59
62072;BME280;48031;48.542;13.232;2023-02-28T12:37:41;97988.53;;;30.69;11.00
62072;BME280;48031;48.542;13.232;2023-02-28T12:42:01;97978.34;;;30.80;11.50
62072;BME280;48031;48.542;13.232;2023-02-28T12:46:16;97975.28;;;30.12;11.21
62072;BME280;48031;48.542;13.232;2023-02-28T12:50:19;97972.41;;;30.28;11.30
62072;BME280;48031;48.542;13.232;2023-02-28T12:54:28;97973.94;;;30.06;11.54
62072;BME280;48031;48.542;13.232;2023-02-28T12:58:51;97961.34;;;33.95;8.91
62072;BME280;48031;48.542;13.232;2023-02-28T13:07:43;97959.66;;;28.42;13.37
62072;BME280;48031;48.542;13.232;2023-02-28T13:11:49;97963.91;;;28.51;12.95
62072;BME280;48031;48.542;13.232;2023-02-28T13:16:07;97971.03;;;32.12;10.36
62072;BME280;48031;48.542;13.232;2023-02-28T13:20:18;97978.72;;;30.79;10.45
62072;BME280;48031;48.542;13.232;2023-02-28T13:37:33;97969.72;;;27.09;13.96
62072;BME280;48031;48.542;13.232;2023-02-28T13:41:43;97962.53;;;29.17;12.09
62072;BME280;48031;48.542;13.232;2023-02-28T13:46:08;97969.19;;;28.69;12.53
62072;BME280;48031;48.542;13.232;2023-02-28T13:58:54;97973.19;;;31.70;10.23
62072;BME280;48031;48.542;13.232;2023-02-28T14:07:39;97966.63;;;29.51;11.86
62072;BME280;48031;48.542;13.232;2023-02-28T14:11:43;97971.56;;;29.57;11.96
62072;BME280;48031;48.542;13.232;2023-02-28T14:15:46;97959.47;;;31.91;11.13
62072;BME280;48031;48.542;13.232;2023-02-28T14:19:50;97966.44;;;31.06;9.97
62072;BME280;48031;48.542;13.232;2023-02-28T14:24:29;97989.03;;;19.79;21.21
62072;BME280;48031;48.542;13.232;2023-02-28T14:37:20;97987.41;;;17.86;22.99
62072;BME280;48031;48.542;13.232;2023-02-28T14:41:30;97986.47;;;16.83;23.99
62072;BME280;48031;48.542;13.232;2023-02-28T14:45:35;97980.34;;;17.06;25.10
62072;BME280;48031;48.542;13.232;2023-02-28T14:49:43;97987.56;;;16.01;26.90
62072;BME280;48031;48.542;13.232;2023-02-28T14:53:59;97987.47;;;14.46;27.91
62072;BME280;48031;48.542;13.232;2023-02-28T14:58:05;97986.94;;;13.85;29.24
62072;BME280;48031;48.542;13.232;2023-02-28T15:06:19;97992.22;;;13.97;29.40
62072;BME280;48031;48.542;13.232;2023-02-28T15:10:25;97985.44;;;13.46;29.93
62072;BME280;48031;48.542;13.232;2023-02-28T15:14:28;97985.44;;;13.46;30.59
62072;BME280;48031;48.542;13.232;2023-02-28T15:22:43;97992.69;;;12.36;33.02
62072;BME280;48031;48.542;13.232;2023-02-28T15:26:51;98001.50;;;12.82;32.46
62072;BME280;48031;48.542;13.232;2023-02-28T15:31:03;98006.53;;;12.52;32.52
62072;BME280;48031;48.542;13.232;2023-02-28T15:39:28;98002.91;;;11.96;34.51
62072;BME280;48031;48.542;13.232;2023-02-28T15:43:35;98000.13;;;12.24;33.38
62072;BME280;48031;48.542;13.232;2023-02-28T15:47:37;98002.06;;;11.95;34.05
62072;BME280;48031;48.542;13.232;2023-02-28T15:51:39;98006.06;;;11.19;34.36
62072;BME280;48031;48.542;13.232;2023-02-28T15:55:41;98004.59;;;10.89;35.61
62072;BME280;48031;48.542;13.232;2023-02-28T15:59:53;98003.34;;;11.76;33.90
62072;BME280;48031;48.542;13.232;2023-02-28T16:04:01;98004.72;;;10.94;36.03
62072;BME280;48031;48.542;13.232;2023-02-28T16:08:14;98012.22;;;11.15;35.01
62072;BME280;48031;48.542;13.232;2023-02-28T16:12:17;98014.91;;;10.52;35.40
62072;BME280;48031;48.542;13.232;2023-02-28T16:16:21;98011.00;;;10.71;35.70
62072;BME280;48031;48.542;13.232;2023-02-28T16:20:29;98007.50;;;10.47;36.23
62072;BME280;48031;48.542;13.232;2023-02-28T16:24:31;98008.41;;;9.76;37.26
62072;BME280;48031;48.542;13.232;2023-02-28T16:28:35;97998.88;;;10.27;36.73
62072;BME280;48031;48.542;13.232;2023-02-28T16:32:38;98003.38;;;9.80;36.70
62072;BME280;48031;48.542;13.232;2023-02-28T16:36:39;97996.44;;;9.54;37.65
62072;BME280;48031;48.542;13.232;2023-02-28T16:40:42;98014.50;;;10.01;36.96
62072;BME280;48031;48.542;13.232;2023-02-28T16:44:44;98006.16;;;9.32;37.83
62072;BME280;48031;48.542;13.232;2023-02-28T16:48:47;98014.94;;;9.45;37.40
62072;BME280;48031;48.542;13.232;2023-02-28T16:52:53;98014.63;;;10.07;37.10
62072;BME280;48031;48.542;13.232;2023-02-28T16:56:56;98023.03;;;9.64;37.58
62072;BME280;48031;48.542;13.232;2023-02-28T17:00:57;98025.56;;;9.47;37.83
62072;BME280;48031;48.542;13.232;2023-02-28T17:05:00;98035.63;;;9.70;38.41
62072;BME280;48031;48.542;13.232;2023-02-28T17:09:02;98031.59;;;9.60;37.79
62072;BME280;48031;48.542;13.232;2023-02-28T17:13:04;98035.38;;;8.93;38.39
62072;BME280;48031;48.542;13.232;2023-02-28T17:17:18;98037.00;;;9.31;39.19
62072;BME280;48031;48.542;13.232;2023-02-28T17:21:21;98040.50;;;9.49;38.38
62072;BME280;48031;48.542;13.232;2023-02-28T17:25:23;98060.59;;;9.42;38.80
62072;BME280;48031;48.542;13.232;2023-02-28T17:29:25;98065.34;;;8.55;39.33
62072;BME280;48031;48.542;13.232;2023-02-28T17:33:27;98059.28;;;9.14;38.84
62072;BME280;48031;48.542;13.232;2023-02-28T17:37:29;98054.28;;;9.48;38.40
62072;BME280;48031;48.542;13.232;2023-02-28T17:41:30;98054.63;;;8.67;40.17
62072;BME280;48031;48.542;13.232;2023-02-28T17:45:32;98054.31;;;8.57;39.79
62072;BME280;48031;48.542;13.232;2023-02-28T17:49:36;98067.50;;;9.08;38.43
62072;BME280;48031;48.542;13.232;2023-02-28T17:53:38;98063.00;;;8.41;40.48
62072;BME280;48031;48.542;13.232;2023-02-28T17:57:40;98072.03;;;8.96;39.05
62072;BME280;48031;48.542;13.232;2023-02-28T18:01:43;98067.19;;;8.98;39.57
62072;BME280;48031;48.542;13.232;2023-02-28T18:05:45;98067.19;;;9.16;39.04
62072;BME280;48031;48.542;13.232;2023-02-28T18:09:46;98067.44;;;8.96;39.28
62072;BME280;48031;48.542;13.232;2023-02-28T18:13:50;98064.63;;;9.03;39.25
62072;BME280;48031;48.542;13.232;2023-02-28T18:17:52;98064.06;;;9.79;38.23
62072;BME280;48031;48.542;13.232;2023-02-28T18:21:54;98052.25;;;8.95;40.09
62072;BME280;48031;48.542;13.232;2023-02-28T18:25:56;98066.34;;;8.97;39.21
62072;BME280;48031;48.542;13.232;2023-02-28T18:29:59;98062.97;;;9.20;39.02
62072;BME280;48031;48.542;13.232;2023-02-28T18:34:01;98058.44;;;9.32;39.70
62072;BME280;48031;48.542;13.232;2023-02-28T18:38:08;98058.00;;;9.35;39.38
62072;BME280;48031;48.542;13.232;2023-02-28T18:42:11;98059.88;;;8.37;40.23
62072;BME280;48031;48.542;13.232;2023-02-28T18:46:16;98052.44;;;9.30;39.41
62072;BME280;48031;48.542;13.232;2023-02-28T18:50:18;98050.19;;;9.27;38.63
62072;BME280;48031;48.542;13.232;2023-02-28T18:54:20;98048.06;;;8.56;39.64
62072;BME280;48031;48.542;13.232;2023-02-28T18:58:22;98059.81;;;9.41;38.33
62072;BME280;48031;48.542;13.232;2023-02-28T19:02:24;98060.97;;;8.79;38.85
62072;BME280;48031;48.542;13.232;2023-02-28T19:06:27;98060.19;;;8.72;39.89
62072;BME280;48031;48.542;13.232;2023-02-28T19:10:30;98056.13;;;9.36;38.82
62072;BME280;48031;48.542;13.232;2023-02-28T19:14:32;98060.88;;;9.04;39.71
62072;BME280;48031;48.542;13.232;2023-02-28T19:18:34;98070.38;;;9.13;39.38
62072;BME280;48031;48.542;13.232;2023-02-28T19:22:36;98051.03;;;8.91;39.76
62072;BME280;48031;48.542;13.232;2023-02-28T19:26:38;98049.44;;;8.65;39.83
62072;BME280;48031;48.542;13.232;2023-02-28T19:30:46;98050.66;;;9.24;39.63
62072;BME280;48031;48.542;13.232;2023-02-28T19:34:48;98056.13;;;8.81;39.12
62072;BME280;48031;48.542;13.232;2023-02-28T19:38:50;98055.00;;;8.89;39.64
62072;BME280;48031;48.542;13.232;2023-02-28T19:42:52;98051.88;;;9.58;38.43
62072;BME280;48031;48.542;13.232;2023-02-28T19:46:53;98063.44;;;8.99;39.36
62072;BME280;48031;48.542;13.232;2023-02-28T19:51:04;98062.28;;;9.73;39.21
62072;BME280;48031;48.542;13.232;2023-02-28T19:55:06;98062.09;;;9.08;39.08
62072;BME280;48031;48.542;13.232;2023-02-28T19:59:08;98068.91;;;9.29;38.74
62072;BME280;48031;48.542;13.232;2023-02-28T20:03:26;98066.78;;;9.31;38.81
62072;BME280;48031;48.542;13.232;2023-02-28T20:07:28;98064.34;;;8.74;39.35
62072;BME280;48031;48.542;13.232;2023-02-28T20:11:30;98066.28;;;9.04;39.00
62072;BME280;48031;48.542;13.232;2023-02-28T20:15:32;98070.84;;;8.67;40.11
62072;BME280;48031;48.542;13.232;2023-02-28T20:19:34;98066.94;;;8.81;39.75
62072;BME280;48031;48.542;13.232;2023-02-28T20:23:40;98072.69;;;9.09;39.75
62072;BME280;48031;48.542;13.232;2023-02-28T20:27:42;98070.34;;;8.95;39.41
62072;BME280;48031;48.542;13.232;2023-02-28T20:31:44;98064.88;;;8.09;41.13
62072;BME280;48031;48.542;13.232;2023-02-28T20:35:45;98064.81;;;8.47;40.58
62072;BME280;48031;48.542;13.232;2023-02-28T20:39:47;98065.13;;;8.57;39.99
62072;BME280;48031;48.542;13.232;2023-02-28T20:43:55;98065.72;;;8.59;40.10
62072;BME280;48031;48.542;13.232;2023-02-28T20:47:58;98076.22;;;8.24;40.82
62072;BME280;48031;48.542;13.232;2023-02-28T20:52:00;98076.22;;;8.49;40.43
62072;BME280;48031;48.542;13.232;2023-02-28T21:00:07;98066.91;;;9.06;39.37
62072;BME280;48031;48.542;13.232;2023-02-28T21:04:10;98065.47;;;8.85;39.10
62072;BME280;48031;48.542;13.232;2023-02-28T21:08:11;98058.25;;;8.79;40.10
62072;BME280;48031;48.542;13.232;2023-02-28T21:12:13;98058.47;;;8.34;40.85
62072;BME280;48031;48.542;13.232;2023-02-28T21:16:17;98058.09;;;8.74;39.86
62072;BME280;48031;48.542;13.232;2023-02-28T21:20:19;98053.94;;;8.71;39.36
62072;BME280;48031;48.542;13.232;2023-02-28T21:24:24;98062.22;;;8.95;38.59
62072;BME280;48031;48.542;13.232;2023-02-28T21:28:25;98055.25;;;8.69;40.12
62072;BME280;48031;48.542;13.232;2023-02-28T21:32:27;98052.06;;;9.08;39.60
62072;BME280;48031;48.542;13.232;2023-02-28T21:36:31;98055.91;;;9.19;39.17
62072;BME280;48031;48.542;13.232;2023-02-28T21:40:33;98048.00;;;8.81;39.38
62072;BME280;48031;48.542;13.232;2023-02-28T21:44:35;98043.34;;;9.25;38.91
62072;BME280;48031;48.542;13.232;2023-02-28T21:48:37;98052.13;;;9.20;38.72
62072;BME280;48031;48.542;13.232;2023-02-28T21:52:39;98043.66;;;8.98;38.86
62072;BME280;48031;48.542;13.232;2023-02-28T21:56:42;98047.59;;;9.32;39.15
62072;BME280;48031;48.542;13.232;2023-02-28T22:00:43;98046.19;;;9.30;39.11
62072;BME280;48031;48.542;13.232;2023-02-28T22:04:46;98050.78;;;9.29;39.13
62072;BME280;48031;48.542;13.232;2023-02-28T22:08:51;98050.72;;;8.99;40.77
62072;BME280;48031;48.542;13.232;2023-02-28T22:12:54;98052.47;;;9.12;39.44
62072;BME280;48031;48.542;13.232;2023-02-28T22:16:56;98035.38;;;8.93;39.56
62072;BME280;48031;48.542;13.232;2023-02-28T22:20:58;98039.69;;;8.40;40.90
62072;BME280;48031;48.542;13.232;2023-02-28T22:25:00;98038.00;;;9.00;39.64
62072;BME280;48031;48.542;13.232;2023-02-28T22:29:02;98043.97;;;8.90;39.10
62072;BME280;48031;48.542;13.232;2023-02-28T22:33:04;98042.88;;;8.55;39.97
62072;BME280;48031;48.542;13.232;2023-02-28T22:37:06;98038.50;;;8.04;40.83
62072;BME280;48031;48.542;13.232;2023-02-28T22:41:08;98040.63;;;7.71;42.13
62072;BME280;48031;48.542;13.232;2023-02-28T22:45:12;98032.81;;;7.87;41.91
62072;BME280;48031;48.542;13.232;2023-02-28T22:49:14;98037.81;;;7.52;41.57
62072;BME280;48031;48.542;13.232;2023-02-28T22:53:15;98038.44;;;7.86;41.22
62072;BME280;48031;48.542;13.232;2023-02-28T22:57:18;98049.56;;;7.40;42.33
62072;BME280;48031;48.542;13.232;2023-02-28T23:01:22;98044.78;;;7.98;41.81
62072;BME280;48031;48.542;13.232;2023-02-28T23:05:24;98046.34;;;7.56;42.02
62072;BME280;48031;48.542;13.232;2023-02-28T23:09:26;98035.91;;;7.28;42.63
62072;BME280;48031;48.542;13.232;2023-02-28T23:13:28;98052.00;;;6.97;43.70
62072;BME280;48031;48.542;13.232;2023-02-28T23:17:30;98048.09;;;6.93;43.80
62072;BME280;48031;48.542;13.232;2023-02-28T23:21:33;98051.41;;;7.01;44.28
62072;BME280;48031;48.542;13.232;2023-02-28T23:25:38;98044.66;;;7.24;43.30
62072;BME280;48031;48.542;13.232;2023-02-28T23:29:40;98043.69;;;7.05;42.88
62072;BME280;48031;48.542;13.232;2023-02-28T23:33:42;98038.41;;;6.72;43.51
62072;BME280;48031;48.542;13.232;2023-02-28T23:37:44;98040.81;;;7.00;43.41
62072;BME280;48031;48.542;13.232;2023-02-28T23:41:46;98032.84;;;6.47;44.48
62072;BME280;48031;48.542;13.232;2023-02-28T23:45:55;98033.09;;;7.03;43.85
62072;BME280;48031;48.542;13.232;2023-02-28T23:49:57;98027.91;;;6.44;44.49
62072;BME280;48031;48.542;13.232;2023-02-28T23:53:59;98032.84;;;6.60;43.84
62072;BME280;48031;48.542;13.232;2023-02-28T23:58:03;98028.72;;;6.25;44.90
